sensor_id;sensor_type;location;lat;lon;timestamp;P1;durP1;ratioP1;P2;durP2;ratioP2
18168;SDS011;49877;50.398;30.324;2022-11-23T00:01:24;20.70;;;13.10;;
18168;SDS011;49877;50.398;30.324;2022-11-23T00:03:53;23.20;;;13.60;;
18168;SDS011;49877;50.398;30.324;2022-11-23T00:06:21;23.43;;;13.30;;
18168;SDS011;49877;50.398;30.324;2022-11-23T00:08:48;25.73;;;14.27;;
18168;SDS011;49877;50.398;30.324;2022-11-23T00:11:16;22.87;;;12.57;;
18168;SDS011;49877;50.398;30.324;2022-11-23T00:13:44;21.67;;;13.17;;
18168;SDS011;49877;50.398;30.324;2022-11-23T00:16:11;24.03;;;13.97;;
18168;SDS011;49877;50.398;30.324;2022-11-23T00:18:41;21.87;;;13.27;;
18168;SDS011;49877;50.398;30.324;2022-11-23T00:21:09;23.87;;;14.33;;
18168;SDS011;49877;50.398;30.324;2022-11-23T00:23:37;24.97;;;14.80;;
18168;SDS011;49877;50.398;30.324;2022-11-23T00:26:04;25.23;;;14.40;;
18168;SDS011;49877;50.398;30.324;2022-11-23T00:28:31;26.73;;;14.73;;
18168;SDS011;49877;50.398;30.324;2022-11-23T00:30:59;27.57;;;15.03;;
18168;SDS011;49877;50.398;30.324;2022-11-23T00:33:25;26.70;;;15.47;;
18168;SDS011;49877;50.398;30.324;2022-11-23T00:36:00;27.07;;;14.73;;
18168;SDS011;49877;50.398;30.324;2022-11-23T00:38:28;25.80;;;15.37;;
18168;SDS011;49877;50.398;30.324;2022-11-23T00:40:58;26.33;;;14.37;;
18168;SDS011;49877;50.398;30.324;2022-11-23T00:43:25;27.57;;;15.30;;
18168;SDS011;49877;50.398;30.324;2022-11-23T00:46:06;29.47;;;15.13;;
18168;SDS011;49877;50.398;30.324;2022-11-23T00:48:34;30.43;;;15.63;;
18168;SDS011;49877;50.398;30.324;2022-11-23T00:51:03;27.63;;;15.63;;
18168;SDS011;49877;50.398;30.324;2022-11-23T00:53:32;26.97;;;14.30;;
18168;SDS011;49877;50.398;30.324;2022-11-23T00:55:59;26.40;;;14.53;;
18168;SDS011;49877;50.398;30.324;2022-11-23T00:58:26;26.63;;;14.90;;
18168;SDS011;49877;50.398;30.324;2022-11-23T01:01:03;29.43;;;15.33;;
18168;SDS011;49877;50.398;30.324;2022-11-23T01:03:31;25.70;;;14.43;;
18168;SDS011;49877;50.398;30.324;2022-11-23T01:06:04;25.13;;;15.17;;
18168;SDS011;49877;50.398;30.324;2022-11-23T01:08:33;27.13;;;14.73;;
18168;SDS011;49877;50.398;30.324;2022-11-23T01:11:00;27.10;;;15.53;;
18168;SDS011;49877;50.398;30.324;2022-11-23T01:13:28;26.70;;;15.40;;
18168;SDS011;49877;50.398;30.324;2022-11-23T01:15:55;26.77;;;15.60;;
18168;SDS011;49877;50.398;30.324;2022-11-23T01:18:22;26.70;;;15.60;;
18168;SDS011;49877;50.398;30.324;2022-11-23T01:20:49;29.83;;;16.33;;
18168;SDS011;49877;50.398;30.324;2022-11-23T01:23:18;29.17;;;16.93;;
18168;SDS011;49877;50.398;30.324;2022-11-23T01:25:45;26.87;;;15.97;;
18168;SDS011;49877;50.398;30.324;2022-11-23T01:28:11;30.60;;;16.37;;
18168;SDS011;49877;50.398;30.324;2022-11-23T01:30:38;28.10;;;16.33;;
18168;SDS011;49877;50.398;30.324;2022-11-23T01:33:05;27.17;;;15.30;;
18168;SDS011;49877;50.398;30.324;2022-11-23T01:35:32;32.23;;;16.53;;
18168;SDS011;49877;50.398;30.324;2022-11-23T01:37:59;30.30;;;16.97;;
18168;SDS011;49877;50.398;30.324;2022-11-23T01:40:27;29.83;;;16.77;;
18168;SDS011;49877;50.398;30.324;2022-11-23T01:42:54;32.77;;;17.17;;
18168;SDS011;49877;50.398;30.324;2022-11-23T01:45:27;31.80;;;17.20;;
18168;SDS011;49877;50.398;30.324;2022-11-23T01:48:03;31.43;;;18.13;;
18168;SDS011;49877;50.398;30.324;2022-11-23T01:50:35;34.37;;;17.80;;
18168;SDS011;49877;50.398;30.324;2022-11-23T01:53:02;35.70;;;17.70;;
18168;SDS011;49877;50.398;30.324;2022-11-23T01:55:31;32.77;;;18.07;;
18168;SDS011;49877;50.398;30.324;2022-11-23T01:57:59;34.63;;;17.57;;
18168;SDS011;49877;50.398;30.324;2022-11-23T02:00:26;34.17;;;18.10;;
18168;SDS011;49877;50.398;30.324;2022-11-23T02:02:54;33.23;;;18.13;;
18168;SDS011;49877;50.398;30.324;2022-11-23T02:05:24;33.77;;;17.90;;
18168;SDS011;49877;50.398;30.324;2022-11-23T02:07:57;33.53;;;18.33;;
18168;SDS011;49877;50.398;30.324;2022-11-23T02:10:25;35.43;;;19.47;;
18168;SDS011;49877;50.398;30.324;2022-11-23T02:12:54;33.00;;;17.50;;
18168;SDS011;49877;50.398;30.324;2022-11-23T02:15:21;33.50;;;17.47;;
18168;SDS011;49877;50.398;30.324;2022-11-23T02:17:47;36.13;;;18.90;;
18168;SDS011;49877;50.398;30.324;2022-11-23T02:20:15;40.07;;;19.17;;
18168;SDS011;49877;50.398;30.324;2022-11-23T02:22:47;41.10;;;19.80;;
18168;SDS011;49877;50.398;30.324;2022-11-23T02:25:18;42.17;;;19.93;;
18168;SDS011;49877;50.398;30.324;2022-11-23T02:28:04;42.87;;;20.73;;
18168;SDS011;49877;50.398;30.324;2022-11-23T02:30:32;36.33;;;19.23;;
18168;SDS011;49877;50.398;30.324;2022-11-23T02:33:02;44.00;;;19.90;;
18168;SDS011;49877;50.398;30.324;2022-11-23T02:35:29;41.70;;;20.37;;
18168;SDS011;49877;50.398;30.324;2022-11-23T02:37:56;42.60;;;19.93;;
18168;SDS011;49877;50.398;30.324;2022-11-23T02:40:25;44.87;;;20.70;;
18168;SDS011;49877;50.398;30.324;2022-11-23T02:42:54;40.00;;;20.40;;
18168;SDS011;49877;50.398;30.324;2022-11-23T02:45:25;42.20;;;19.83;;
18168;SDS011;49877;50.398;30.324;2022-11-23T02:47:56;44.60;;;20.90;;
18168;SDS011;49877;50.398;30.324;2022-11-23T02:50:23;40.10;;;19.83;;
18168;SDS011;49877;50.398;30.324;2022-11-23T02:52:50;43.63;;;20.57;;
18168;SDS011;49877;50.398;30.324;2022-11-23T02:55:17;43.07;;;21.13;;
18168;SDS011;49877;50.398;30.324;2022-11-23T02:57:44;45.87;;;20.90;;
18168;SDS011;49877;50.398;30.324;2022-11-23T03:00:11;44.30;;;20.53;;
18168;SDS011;49877;50.398;30.324;2022-11-23T03:02:40;42.53;;;21.20;;
18168;SDS011;49877;50.398;30.324;2022-11-23T03:05:07;45.17;;;20.33;;
18168;SDS011;49877;50.398;30.324;2022-11-23T03:07:34;48.77;;;21.77;;
18168;SDS011;49877;50.398;30.324;2022-11-23T03:10:01;44.37;;;20.73;;
18168;SDS011;49877;50.398;30.324;2022-11-23T03:12:29;49.07;;;20.67;;
18168;SDS011;49877;50.398;30.324;2022-11-23T03:14:56;44.83;;;20.33;;
18168;SDS011;49877;50.398;30.324;2022-11-23T03:17:22;42.77;;;20.83;;
18168;SDS011;49877;50.398;30.324;2022-11-23T03:19:50;36.17;;;18.20;;
18168;SDS011;49877;50.398;30.324;2022-11-23T03:22:17;37.57;;;18.50;;
18168;SDS011;49877;50.398;30.324;2022-11-23T03:24:44;39.87;;;19.37;;
18168;SDS011;49877;50.398;30.324;2022-11-23T03:27:11;42.70;;;19.07;;
18168;SDS011;49877;50.398;30.324;2022-11-23T03:29:37;41.67;;;19.57;;
18168;SDS011;49877;50.398;30.324;2022-11-23T03:32:04;42.73;;;20.30;;
18168;SDS011;49877;50.398;30.324;2022-11-23T03:34:31;37.63;;;19.17;;
18168;SDS011;49877;50.398;30.324;2022-11-23T03:36:59;40.67;;;18.83;;
18168;SDS011;49877;50.398;30.324;2022-11-23T03:39:26;34.87;;;18.27;;
18168;SDS011;49877;50.398;30.324;2022-11-23T03:41:53;39.03;;;19.13;;
18168;SDS011;49877;50.398;30.324;2022-11-23T03:44:20;41.63;;;21.20;;
18168;SDS011;49877;50.398;30.324;2022-11-23T03:46:47;33.60;;;17.37;;
18168;SDS011;49877;50.398;30.324;2022-11-23T03:49:14;34.23;;;16.87;;
18168;SDS011;49877;50.398;30.324;2022-11-23T03:51:41;33.43;;;16.47;;
18168;SDS011;49877;50.398;30.324;2022-11-23T03:54:09;36.20;;;17.27;;
18168;SDS011;49877;50.398;30.324;2022-11-23T03:56:36;31.57;;;16.37;;
18168;SDS011;49877;50.398;30.324;2022-11-23T03:59:03;33.33;;;16.43;;
18168;SDS011;49877;50.398;30.324;2022-11-23T04:01:30;29.57;;;15.70;;
18168;SDS011;49877;50.398;30.324;2022-11-23T04:03:56;31.40;;;16.67;;
18168;SDS011;49877;50.398;30.324;2022-11-23T04:06:23;35.23;;;16.60;;
18168;SDS011;49877;50.398;30.324;2022-11-23T04:08:50;30.10;;;16.03;;
18168;SDS011;49877;50.398;30.324;2022-11-23T04:11:18;33.53;;;16.70;;
18168;SDS011;49877;50.398;30.324;2022-11-23T04:13:45;33.13;;;15.67;;
18168;SDS011;49877;50.398;30.324;2022-11-23T04:16:12;29.63;;;15.90;;
18168;SDS011;49877;50.398;30.324;2022-11-23T04:18:39;32.20;;;16.17;;
18168;SDS011;49877;50.398;30.324;2022-11-23T04:21:06;29.53;;;15.27;;
18168;SDS011;49877;50.398;30.324;2022-11-23T04:23:32;33.70;;;16.43;;
18168;SDS011;49877;50.398;30.324;2022-11-23T04:25:59;30.57;;;15.83;;
18168;SDS011;49877;50.398;30.324;2022-11-23T04:28:27;29.37;;;14.33;;
18168;SDS011;49877;50.398;30.324;2022-11-23T04:30:54;29.47;;;15.03;;
18168;SDS011;49877;50.398;30.324;2022-11-23T04:33:22;24.53;;;14.10;;
18168;SDS011;49877;50.398;30.324;2022-11-23T04:35:49;30.77;;;16.17;;
18168;SDS011;49877;50.398;30.324;2022-11-23T04:38:16;29.20;;;16.30;;
18168;SDS011;49877;50.398;30.324;2022-11-23T04:40:45;33.70;;;17.97;;
18168;SDS011;49877;50.398;30.324;2022-11-23T04:43:12;35.13;;;18.90;;
18168;SDS011;49877;50.398;30.324;2022-11-23T04:45:40;34.50;;;17.63;;
18168;SDS011;49877;50.398;30.324;2022-11-23T04:48:07;30.50;;;16.93;;
18168;SDS011;49877;50.398;30.324;2022-11-23T04:50:33;29.97;;;17.07;;
18168;SDS011;49877;50.398;30.324;2022-11-23T04:53:01;29.47;;;16.07;;
18168;SDS011;49877;50.398;30.324;2022-11-23T04:55:29;26.07;;;14.83;;
18168;SDS011;49877;50.398;30.324;2022-11-23T04:57:56;24.83;;;14.40;;
18168;SDS011;49877;50.398;30.324;2022-11-23T05:00:23;23.23;;;14.30;;
18168;SDS011;49877;50.398;30.324;2022-11-23T05:02:51;22.60;;;13.03;;
18168;SDS011;49877;50.398;30.324;2022-11-23T05:05:18;23.00;;;13.20;;
18168;SDS011;49877;50.398;30.324;2022-11-23T05:07:45;23.30;;;12.77;;
18168;SDS011;49877;50.398;30.324;2022-11-23T05:10:11;27.13;;;13.50;;
18168;SDS011;49877;50.398;30.324;2022-11-23T05:12:38;22.40;;;12.50;;
18168;SDS011;49877;50.398;30.324;2022-11-23T05:15:05;23.47;;;14.03;;
18168;SDS011;49877;50.398;30.324;2022-11-23T05:17:32;21.77;;;12.63;;
18168;SDS011;49877;50.398;30.324;2022-11-23T05:20:01;25.07;;;14.33;;
18168;SDS011;49877;50.398;30.324;2022-11-23T05:22:28;25.90;;;14.60;;
18168;SDS011;49877;50.398;30.324;2022-11-23T05:24:54;27.37;;;12.97;;
18168;SDS011;49877;50.398;30.324;2022-11-23T05:27:21;21.53;;;12.37;;
18168;SDS011;49877;50.398;30.324;2022-11-23T05:29:48;21.43;;;12.57;;
18168;SDS011;49877;50.398;30.324;2022-11-23T05:32:15;21.60;;;12.77;;
18168;SDS011;49877;50.398;30.324;2022-11-23T05:34:42;21.13;;;12.27;;
18168;SDS011;49877;50.398;30.324;2022-11-23T05:37:10;23.40;;;13.37;;
18168;SDS011;49877;50.398;30.324;2022-11-23T05:39:37;22.93;;;12.50;;
18168;SDS011;49877;50.398;30.324;2022-11-23T05:42:04;23.60;;;13.17;;
18168;SDS011;49877;50.398;30.324;2022-11-23T05:44:31;21.83;;;12.77;;
18168;SDS011;49877;50.398;30.324;2022-11-23T05:46:57;20.93;;;12.43;;
18168;SDS011;49877;50.398;30.324;2022-11-23T05:49:24;20.23;;;11.90;;
18168;SDS011;49877;50.398;30.324;2022-11-23T05:51:51;20.00;;;12.37;;
18168;SDS011;49877;50.398;30.324;2022-11-23T05:54:19;23.63;;;13.30;;
18168;SDS011;49877;50.398;30.324;2022-11-23T08:29:17;19.13;;;11.63;;
18168;SDS011;49877;50.398;30.324;2022-11-23T08:31:44;18.67;;;11.27;;
18168;SDS011;49877;50.398;30.324;2022-11-23T08:34:11;20.13;;;13.00;;
18168;SDS011;49877;50.398;30.324;2022-11-23T08:36:38;22.00;;;12.90;;
18168;SDS011;49877;50.398;30.324;2022-11-23T08:39:05;22.57;;;13.70;;
18168;SDS011;49877;50.398;30.324;2022-11-23T08:41:35;20.77;;;12.57;;
18168;SDS011;49877;50.398;30.324;2022-11-23T08:44:01;20.30;;;12.47;;
18168;SDS011;49877;50.398;30.324;2022-11-23T08:46:30;20.43;;;12.27;;
18168;SDS011;49877;50.398;30.324;2022-11-23T08:48:57;22.37;;;13.50;;
18168;SDS011;49877;50.398;30.324;2022-11-23T08:51:23;21.67;;;12.73;;
18168;SDS011;49877;50.398;30.324;2022-11-23T08:53:50;23.43;;;13.77;;
18168;SDS011;49877;50.398;30.324;2022-11-23T08:56:17;25.27;;;13.77;;
18168;SDS011;49877;50.398;30.324;2022-11-23T08:58:44;25.77;;;13.97;;
18168;SDS011;49877;50.398;30.324;2022-11-23T09:01:12;23.60;;;12.83;;
18168;SDS011;49877;50.398;30.324;2022-11-23T09:03:41;26.80;;;14.20;;
18168;SDS011;49877;50.398;30.324;2022-11-23T09:06:09;21.27;;;13.07;;
18168;SDS011;49877;50.398;30.324;2022-11-23T09:08:37;22.30;;;12.07;;
18168;SDS011;49877;50.398;30.324;2022-11-23T09:11:05;22.77;;;13.30;;
18168;SDS011;49877;50.398;30.324;2022-11-23T09:13:34;24.50;;;13.80;;
18168;SDS011;49877;50.398;30.324;2022-11-23T09:16:02;22.87;;;12.83;;
18168;SDS011;49877;50.398;30.324;2022-11-23T09:18:30;21.20;;;13.23;;
18168;SDS011;49877;50.398;30.324;2022-11-23T09:21:00;20.07;;;12.67;;
18168;SDS011;49877;50.398;30.324;2022-11-23T09:23:28;23.07;;;13.20;;
18168;SDS011;49877;50.398;30.324;2022-11-23T09:25:56;23.97;;;13.77;;
18168;SDS011;49877;50.398;30.324;2022-11-23T09:28:24;23.57;;;13.70;;
18168;SDS011;49877;50.398;30.324;2022-11-23T09:30:52;26.13;;;14.03;;
18168;SDS011;49877;50.398;30.324;2022-11-23T09:33:19;24.80;;;13.20;;
18168;SDS011;49877;50.398;30.324;2022-11-23T09:35:46;23.10;;;13.23;;
18168;SDS011;49877;50.398;30.324;2022-11-23T09:38:14;26.13;;;14.63;;
18168;SDS011;49877;50.398;30.324;2022-11-23T09:40:41;28.60;;;14.77;;
18168;SDS011;49877;50.398;30.324;2022-11-23T09:45:56;28.07;;;14.63;;
18168;SDS011;49877;50.398;30.324;2022-11-23T09:48:37;28.50;;;15.30;;
18168;SDS011;49877;50.398;30.324;2022-11-23T09:51:18;29.93;;;15.97;;
18168;SDS011;49877;50.398;30.324;2022-11-23T09:53:48;33.27;;;17.40;;
18168;SDS011;49877;50.398;30.324;2022-11-23T09:56:19;28.40;;;15.57;;
18168;SDS011;49877;50.398;30.324;2022-11-23T09:58:49;27.77;;;15.77;;
18168;SDS011;49877;50.398;30.324;2022-11-23T10:01:19;24.63;;;14.30;;
18168;SDS011;49877;50.398;30.324;2022-11-23T10:03:46;25.00;;;13.60;;
18168;SDS011;49877;50.398;30.324;2022-11-23T10:06:16;24.70;;;14.10;;
18168;SDS011;49877;50.398;30.324;2022-11-23T10:08:46;23.33;;;13.87;;
18168;SDS011;49877;50.398;30.324;2022-11-23T10:11:32;25.93;;;14.33;;
18168;SDS011;49877;50.398;30.324;2022-11-23T10:14:11;27.10;;;15.27;;
18168;SDS011;49877;50.398;30.324;2022-11-23T10:16:48;27.50;;;15.90;;
18168;SDS011;49877;50.398;30.324;2022-11-23T10:19:23;30.60;;;16.83;;
18168;SDS011;49877;50.398;30.324;2022-11-23T10:21:59;32.37;;;16.00;;
18168;SDS011;49877;50.398;30.324;2022-11-23T10:24:36;27.07;;;15.10;;
18168;SDS011;49877;50.398;30.324;2022-11-23T10:27:09;28.23;;;16.20;;
18168;SDS011;49877;50.398;30.324;2022-11-23T10:29:40;31.67;;;16.67;;
18168;SDS011;49877;50.398;30.324;2022-11-23T10:32:12;31.40;;;17.40;;
18168;SDS011;49877;50.398;30.324;2022-11-23T10:34:48;30.77;;;17.07;;
18168;SDS011;49877;50.398;30.324;2022-11-23T10:37:22;33.20;;;17.93;;
18168;SDS011;49877;50.398;30.324;2022-11-23T10:39:50;33.33;;;18.53;;
18168;SDS011;49877;50.398;30.324;2022-11-23T10:42:18;38.83;;;19.90;;
18168;SDS011;49877;50.398;30.324;2022-11-23T10:44:50;35.43;;;19.03;;
18168;SDS011;49877;50.398;30.324;2022-11-23T10:47:33;37.80;;;19.97;;
18168;SDS011;49877;50.398;30.324;2022-11-23T10:50:02;36.17;;;19.67;;
18168;SDS011;49877;50.398;30.324;2022-11-23T10:52:48;38.07;;;20.03;;
18168;SDS011;49877;50.398;30.324;2022-11-23T10:55:17;36.50;;;19.60;;
18168;SDS011;49877;50.398;30.324;2022-11-23T10:57:49;37.53;;;20.30;;
18168;SDS011;49877;50.398;30.324;2022-11-23T11:00:16;38.17;;;20.63;;
18168;SDS011;49877;50.398;30.324;2022-11-23T11:02:45;36.50;;;19.70;;
18168;SDS011;49877;50.398;30.324;2022-11-23T11:05:20;38.03;;;19.83;;
18168;SDS011;49877;50.398;30.324;2022-11-23T11:07:51;38.77;;;20.17;;
18168;SDS011;49877;50.398;30.324;2022-11-23T11:10:32;34.00;;;19.10;;
18168;SDS011;49877;50.398;30.324;2022-11-23T11:13:03;37.30;;;19.90;;
18168;SDS011;49877;50.398;30.324;2022-11-23T11:15:49;38.00;;;19.73;;
18168;SDS011;49877;50.398;30.324;2022-11-23T11:18:17;35.03;;;19.17;;
18168;SDS011;49877;50.398;30.324;2022-11-23T11:20:45;32.67;;;18.30;;
18168;SDS011;49877;50.398;30.324;2022-11-23T11:23:14;33.50;;;18.47;;
18168;SDS011;49877;50.398;30.324;2022-11-23T11:25:44;35.20;;;19.30;;
18168;SDS011;49877;50.398;30.324;2022-11-23T11:28:20;35.63;;;20.27;;
18168;SDS011;49877;50.398;30.324;2022-11-23T11:30:56;39.63;;;20.93;;
18168;SDS011;49877;50.398;30.324;2022-11-23T11:33:35;37.03;;;20.40;;
18168;SDS011;49877;50.398;30.324;2022-11-23T11:36:06;37.60;;;21.00;;
18168;SDS011;49877;50.398;30.324;2022-11-23T11:38:35;37.80;;;21.20;;
18168;SDS011;49877;50.398;30.324;2022-11-23T11:41:06;41.63;;;22.30;;
18168;SDS011;49877;50.398;30.324;2022-11-23T11:43:36;46.93;;;23.87;;
18168;SDS011;49877;50.398;30.324;2022-11-23T11:46:09;39.77;;;21.80;;
18168;SDS011;49877;50.398;30.324;2022-11-23T11:48:39;40.87;;;21.97;;
18168;SDS011;49877;50.398;30.324;2022-11-23T11:51:10;42.60;;;23.10;;
18168;SDS011;49877;50.398;30.324;2022-11-23T11:53:44;39.37;;;21.97;;
18168;SDS011;49877;50.398;30.324;2022-11-23T11:56:23;42.40;;;24.40;;
18168;SDS011;49877;50.398;30.324;2022-11-23T11:58:55;45.80;;;25.87;;
18168;SDS011;49877;50.398;30.324;2022-11-23T12:01:28;52.73;;;28.43;;
18168;SDS011;49877;50.398;30.324;2022-11-23T12:04:00;45.43;;;26.43;;
18168;SDS011;49877;50.398;30.324;2022-11-23T12:06:33;56.33;;;29.53;;
18168;SDS011;49877;50.398;30.324;2022-11-23T12:09:06;55.43;;;28.43;;
